createdAt,value
2022-10-06T00:01:22.077Z,48.23
2022-10-06T00:03:54.716Z,48.26
2022-10-06T00:06:27.671Z,48.17
2022-10-06T00:09:01.179Z,48.12
2022-10-06T00:11:28.936Z,48.33
2022-10-06T00:13:58.672Z,48.23
2022-10-06T00:16:29.390Z,48.47
2022-10-06T00:18:59.367Z,48.43
2022-10-06T00:21:29.376Z,48.43
2022-10-06T00:24:01.665Z,48.50
2022-10-06T00:26:34.526Z,48.53
2022-10-06T00:29:08.309Z,48.70
2022-10-06T00:31:39.373Z,48.38
2022-10-06T00:34:13.203Z,48.52
2022-10-06T00:36:43.925Z,48.60
2022-10-06T00:39:11.582Z,48.47
2022-10-06T00:41:47.594Z,48.52
2022-10-06T00:44:21.541Z,48.58
2022-10-06T00:46:56.420Z,48.60
2022-10-06T00:49:33.861Z,48.54
2022-10-06T00:52:09.044Z,48.53
2022-10-06T00:54:41.486Z,48.33
2022-10-06T00:57:15.250Z,48.56
2022-10-06T00:59:46.641Z,48.41
2022-10-06T01:02:22.990Z,48.50
2022-10-06T01:05:03.541Z,48.37
2022-10-06T01:07:35.530Z,48.16
2022-10-06T01:10:10.687Z,47.92
2022-10-06T01:12:49.445Z,47.56
2022-10-06T01:15:21.530Z,47.64
2022-10-06T01:18:02.282Z,47.32
2022-10-06T01:20:34.515Z,46.94
2022-10-06T01:23:06.770Z,46.60
2022-10-06T01:25:40.030Z,46.35
2022-10-06T01:28:17.571Z,46.19
2022-10-06T01:30:50.945Z,45.78
2022-10-06T01:33:24.329Z,45.92
2022-10-06T01:35:55.977Z,45.54
2022-10-06T01:38:27.074Z,46.07
2022-10-06T01:41:07.793Z,45.43
2022-10-06T01:43:38.462Z,45.52
2022-10-06T01:46:09.609Z,45.74
2022-10-06T01:48:40.262Z,45.54
2022-10-06T01:51:16.742Z,45.92
2022-10-06T01:53:52.628Z,45.83
2022-10-06T01:56:33.030Z,45.88
2022-10-06T01:59:06.520Z,45.38
2022-10-06T02:01:37.565Z,45.29
2022-10-06T02:04:08.352Z,45.49
2022-10-06T02:06:44.505Z,45.74
2022-10-06T02:09:12.757Z,45.70
2022-10-06T02:11:48.818Z,45.45
2022-10-06T02:14:20.372Z,45.61
2022-10-06T02:16:56.668Z,45.34
2022-10-06T02:19:32.906Z,46.01
2022-10-06T02:22:06.085Z,45.71
2022-10-06T02:24:39.267Z,46.10
2022-10-06T02:27:12.301Z,46.91
2022-10-06T02:29:45.225Z,47.11
2022-10-06T02:32:16.470Z,47.31
2022-10-06T02:34:45.704Z,47.74
2022-10-06T02:37:16.017Z,47.85
2022-10-06T02:39:43.680Z,47.87
2022-10-06T02:42:16.099Z,48.22
2022-10-06T02:44:49.775Z,48.14
2022-10-06T02:47:22.278Z,48.26
2022-10-06T02:49:59.558Z,48.38
2022-10-06T02:52:35.232Z,48.46
2022-10-06T02:55:11.986Z,48.52
2022-10-06T02:57:42.963Z,48.43
2022-10-06T03:00:14.931Z,48.60
2022-10-06T03:02:50.400Z,48.25
2022-10-06T03:05:19.234Z,48.65
2022-10-06T03:07:47.956Z,48.65
2022-10-06T03:10:18.368Z,48.40
2022-10-06T03:12:49.010Z,48.67
2022-10-06T03:15:19.747Z,48.53
2022-10-06T03:17:52.491Z,48.85
2022-10-06T03:20:27.783Z,48.81
2022-10-06T03:23:01.574Z,48.60
2022-10-06T03:25:29.515Z,48.71
2022-10-06T03:27:59.724Z,48.63
2022-10-06T03:30:41.356Z,48.42
2022-10-06T03:33:11.891Z,48.37
2022-10-06T03:35:45.442Z,48.54
2022-10-06T03:38:15.588Z,48.83
2022-10-06T03:40:45.544Z,48.54
2022-10-06T03:43:18.158Z,48.56
2022-10-06T03:45:57.683Z,48.71
2022-10-06T03:48:34.233Z,48.63
2022-10-06T03:51:14.749Z,48.63
2022-10-06T03:53:52.659Z,48.60
2022-10-06T03:56:30.153Z,48.90
2022-10-06T03:59:18.024Z,48.78
2022-10-06T04:01:49.607Z,48.77
2022-10-06T04:04:29.741Z,49.04
2022-10-06T04:07:09.045Z,48.93
2022-10-06T04:09:42.053Z,48.74
2022-10-06T04:12:18.522Z,48.64
2022-10-06T04:14:46.796Z,48.60
2022-10-06T04:17:25.845Z,48.83
2022-10-06T04:19:53.485Z,48.85
2022-10-06T04:22:26.313Z,48.67
2022-10-06T04:24:56.298Z,48.69
2022-10-06T04:27:32.674Z,48.73
2022-10-06T04:30:18.213Z,48.39
2022-10-06T04:32:49.144Z,48.49
2022-10-06T04:35:23.365Z,48.48
2022-10-06T04:37:52.003Z,48.30
2022-10-06T04:40:22.017Z,48.52
2022-10-06T04:42:52.707Z,48.24
2022-10-06T04:45:28.579Z,47.77
2022-10-06T04:47:58.932Z,48.15
2022-10-06T04:50:28.661Z,47.83
2022-10-06T04:53:10.969Z,48.00
2022-10-06T04:55:41.430Z,47.86
2022-10-06T04:58:12.178Z,48.04
2022-10-06T05:00:42.613Z,48.15
2022-10-06T05:03:13.605Z,48.19
2022-10-06T05:05:47.345Z,48.02
2022-10-06T05:08:19.850Z,48.08
2022-10-06T05:10:49.058Z,48.22
2022-10-06T05:13:16.812Z,48.09
2022-10-06T05:15:44.538Z,48.13
2022-10-06T05:18:17.858Z,47.85
2022-10-06T05:21:14.945Z,48.02
2022-10-06T05:23:46.157Z,47.91
2022-10-06T05:26:22.084Z,48.32
2022-10-06T05:28:53.591Z,47.95
2022-10-06T05:31:31.627Z,48.10
2022-10-06T05:34:05.441Z,48.22
2022-10-06T05:36:36.292Z,48.18
2022-10-06T05:39:06.741Z,48.36
2022-10-06T05:41:45.719Z,48.08
2022-10-06T05:44:22.616Z,47.92
2022-10-06T05:46:52.973Z,48.06
2022-10-06T05:49:25.857Z,48.03
2022-10-06T05:51:57.642Z,48.23
2022-10-06T05:54:32.207Z,48.25
2022-10-06T05:57:04.455Z,48.31
2022-10-06T05:59:44.520Z,48.31
2022-10-06T06:02:18.377Z,48.19
2022-10-06T06:04:51.633Z,48.21
2022-10-06T06:07:25.140Z,48.18
2022-10-06T06:10:01.916Z,48.18
2022-10-06T06:12:33.667Z,48.21
2022-10-06T06:15:32.705Z,48.24
2022-10-06T06:18:13.092Z,47.92
2022-10-06T06:20:43.842Z,48.09
2022-10-06T06:23:14.843Z,48.11
2022-10-06T06:25:53.763Z,48.19
2022-10-06T06:28:31.769Z,48.41
2022-10-06T06:31:20.155Z,48.05
2022-10-06T06:34:01.151Z,47.76
2022-10-06T06:36:41.863Z,47.91
2022-10-06T06:39:20.079Z,47.87
2022-10-06T06:41:55.102Z,47.54
2022-10-06T06:44:44.180Z,47.78
2022-10-06T06:47:33.781Z,47.55
2022-10-06T06:50:14.144Z,47.64
2022-10-06T06:52:51.409Z,47.56
2022-10-06T06:55:29.705Z,47.42
2022-10-06T06:58:03.385Z,47.56
2022-10-06T07:00:36.314Z,47.36
2022-10-06T07:03:07.517Z,47.44
2022-10-06T07:05:45.374Z,47.42
2022-10-06T07:08:31.170Z,47.42
2022-10-06T07:11:18.651Z,47.67
2022-10-06T07:14:04.273Z,47.62
2022-10-06T07:16:53.864Z,47.48
2022-10-06T07:19:46.203Z,47.67
2022-10-06T07:22:41.186Z,47.51
2022-10-06T07:25:38.237Z,47.50
2022-10-06T07:28:17.329Z,47.82
2022-10-06T07:30:54.961Z,47.63
2022-10-06T07:33:35.852Z,47.51
2022-10-06T07:36:32.519Z,47.52
2022-10-06T07:39:00.630Z,47.65
2022-10-06T07:41:38.154Z,47.72
2022-10-06T07:44:18.409Z,47.69
2022-10-06T07:46:59.694Z,47.72
2022-10-06T07:49:58.475Z,47.94
2022-10-06T07:52:37.373Z,47.70
2022-10-06T07:55:09.427Z,47.89
2022-10-06T07:57:50.961Z,47.80
2022-10-06T08:00:22.744Z,48.13
2022-10-06T08:02:55.167Z,47.59
2022-10-06T08:05:26.350Z,47.92
2022-10-06T08:07:57.176Z,47.56
2022-10-06T08:10:28.179Z,47.46
2022-10-06T08:13:07.872Z,47.63
2022-10-06T08:15:44.393Z,47.62
2022-10-06T08:18:41.059Z,47.70
2022-10-06T08:21:24.644Z,47.93
2022-10-06T08:24:07.818Z,48.01
2022-10-06T08:26:52.666Z,48.02
2022-10-06T08:29:27.743Z,47.75
2022-10-06T08:31:59.635Z,47.87
2022-10-06T08:34:38.369Z,47.91
2022-10-06T08:37:19.829Z,47.67
2022-10-06T08:39:57.477Z,47.76
2022-10-06T08:42:39.727Z,47.68
2022-10-06T08:45:29.118Z,47.89
2022-10-06T08:48:13.401Z,47.80
2022-10-06T08:51:03.960Z,47.64
2022-10-06T08:53:55.535Z,47.61
2022-10-06T08:56:52.951Z,47.53
2022-10-06T08:59:27.310Z,47.88
2022-10-06T09:02:00.407Z,47.57
2022-10-06T09:04:42.606Z,47.75
2022-10-06T09:07:22.452Z,47.94
2022-10-06T09:10:11.942Z,47.71
2022-10-06T09:13:09.044Z,47.69
2022-10-06T09:16:08.289Z,47.66
2022-10-06T09:19:07.849Z,47.78
2022-10-06T09:21:53.283Z,47.51
2022-10-06T09:24:36.519Z,47.43
2022-10-06T09:27:22.374Z,47.64
2022-10-06T09:30:01.942Z,47.60
2022-10-06T09:32:39.997Z,47.73
2022-10-06T09:35:24.416Z,47.53
2022-10-06T09:38:09.452Z,47.63
2022-10-06T09:40:53.840Z,47.11
2022-10-06T09:43:31.670Z,47.15
2022-10-06T09:46:23.675Z,47.43
2022-10-06T09:49:17.854Z,47.54
2022-10-06T09:51:58.817Z,47.53
2022-10-06T09:54:35.288Z,47.04
2022-10-06T09:57:34.504Z,47.34
2022-10-06T10:00:37.453Z,47.32
2022-10-06T10:03:13.340Z,47.66
2022-10-06T10:06:02.810Z,47.61
2022-10-06T10:08:37.845Z,47.69
2022-10-06T10:11:46.453Z,47.91
2022-10-06T10:14:21.942Z,48.11
2022-10-06T10:16:56.046Z,47.95
2022-10-06T10:19:43.712Z,47.97
2022-10-06T10:22:48.193Z,48.19
2022-10-06T10:26:03.257Z,48.30
2022-10-06T10:29:09.723Z,47.93
2022-10-06T10:32:08.231Z,47.88
2022-10-06T10:35:01.261Z,47.65
2022-10-06T10:37:47.797Z,47.61
2022-10-06T10:40:48.153Z,47.78
2022-10-06T10:43:32.562Z,47.82
2022-10-06T10:46:19.485Z,48.13
2022-10-06T10:49:11.960Z,47.81
2022-10-06T10:51:46.118Z,48.35
2022-10-06T10:54:36.635Z,48.05
2022-10-06T10:57:18.875Z,48.17
2022-10-06T11:00:06.886Z,48.20
2022-10-06T11:02:45.930Z,47.96
2022-10-06T11:05:30.993Z,48.39
2022-10-06T11:08:27.137Z,47.78
2022-10-06T11:11:09.824Z,47.81
2022-10-06T11:13:53.521Z,47.79
2022-10-06T11:16:44.516Z,47.91
2022-10-06T11:19:43.404Z,47.80
2022-10-06T11:22:42.908Z,47.49
2022-10-06T11:25:47.821Z,47.49
2022-10-06T11:28:18.229Z,47.55
2022-10-06T11:31:11.543Z,47.44
2022-10-06T11:33:54.509Z,47.66
2022-10-06T11:36:51.741Z,47.38
2022-10-06T11:39:38.288Z,46.95
2022-10-06T11:42:27.696Z,47.29
2022-10-06T11:45:06.087Z,46.84
2022-10-06T11:48:11.045Z,46.89
2022-10-06T11:50:45.381Z,46.62
2022-10-06T11:53:39.885Z,46.67
2022-10-06T11:56:23.876Z,46.34
2022-10-06T11:58:54.583Z,45.66
2022-10-06T12:01:47.868Z,45.91
2022-10-06T12:04:26.530Z,45.83
2022-10-06T12:06:59.123Z,45.83
2022-10-06T12:09:32.482Z,45.88
2022-10-06T12:12:26.605Z,46.21
2022-10-06T12:17:05.667Z,45.63
2022-10-06T12:18:04.771Z,45.81
2022-10-06T12:20:54.108Z,45.69
2022-10-06T12:23:34.927Z,46.12
2022-10-06T12:26:24.205Z,45.96
2022-10-06T12:29:03.419Z,44.85
2022-10-06T12:32:04.830Z,44.16
2022-10-06T12:34:44.158Z,44.39
2022-10-06T12:37:32.574Z,44.97
2022-10-06T12:40:41.173Z,44.63
2022-10-06T12:43:18.253Z,45.10
2022-10-06T12:46:16.399Z,45.33
2022-10-06T12:49:01.521Z,45.14
2022-10-06T12:51:34.856Z,45.09
2022-10-06T12:54:09.116Z,44.14
2022-10-06T12:56:40.571Z,44.18
2022-10-06T12:59:23.726Z,43.88
2022-10-06T13:01:59.131Z,43.63
2022-10-06T13:04:36.611Z,43.88
2022-10-06T13:07:26.276Z,43.72
2022-10-06T13:10:15.785Z,43.45
2022-10-06T13:12:47.735Z,43.41
2022-10-06T13:15:23.469Z,42.91
2022-10-06T13:18:15.814Z,43.72
2022-10-06T13:20:51.930Z,43.94
2022-10-06T13:23:38.480Z,44.04
2022-10-06T13:26:29.687Z,43.17
2022-10-06T13:29:07.766Z,42.95
2022-10-06T13:31:36.840Z,41.98
2022-10-06T13:34:35.027Z,41.82
2022-10-06T13:37:05.755Z,41.23
2022-10-06T13:39:33.987Z,42.17
2022-10-06T13:42:22.315Z,41.94
2022-10-06T13:45:01.411Z,42.10
2022-10-06T13:47:35.287Z,42.59
2022-10-06T13:50:19.961Z,42.33
2022-10-06T13:52:49.004Z,42.38
2022-10-06T13:55:21.535Z,42.81
2022-10-06T13:58:05.173Z,42.72
2022-10-06T14:01:00.696Z,41.62
2022-10-06T14:03:37.394Z,41.93
2022-10-06T14:06:26.673Z,41.82
2022-10-06T14:08:58.138Z,41.75
2022-10-06T14:11:31.123Z,41.73
2022-10-06T14:14:05.910Z,40.86
2022-10-06T14:16:37.154Z,40.29
2022-10-06T14:19:26.585Z,41.53
2022-10-06T14:21:54.684Z,41.26
2022-10-06T14:24:28.549Z,40.86
2022-10-06T14:27:02.476Z,40.82
2022-10-06T14:29:34.161Z,41.13
2022-10-06T14:32:15.827Z,40.44
2022-10-06T14:34:48.468Z,40.45
2022-10-06T14:37:24.375Z,40.69
2022-10-06T14:39:56.565Z,41.28
2022-10-06T14:42:30.567Z,41.14
2022-10-06T14:45:03.017Z,40.93
2022-10-06T14:47:33.886Z,40.91
2022-10-06T14:50:07.693Z,41.72
2022-10-06T14:52:41.675Z,42.14
2022-10-06T14:55:20.594Z,42.38
2022-10-06T14:57:51.277Z,42.05
2022-10-06T15:00:28.498Z,42.01
2022-10-06T15:03:04.568Z,41.98
2022-10-06T15:06:06.909Z,42.43
2022-10-06T15:08:45.636Z,42.67
2022-10-06T15:11:21.786Z,41.58
2022-10-06T15:13:55.646Z,42.16
2022-10-06T15:16:37.752Z,41.99
2022-10-06T15:19:12.366Z,42.25
2022-10-06T15:21:52.620Z,42.64
2022-10-06T15:24:26.385Z,41.87
2022-10-06T15:27:24.689Z,41.95
2022-10-06T15:29:53.064Z,42.26
2022-10-06T15:32:23.953Z,42.13
2022-10-06T15:34:52.580Z,42.52
2022-10-06T15:37:25.343Z,42.16
2022-10-06T15:39:59.439Z,42.55
2022-10-06T15:42:27.459Z,42.86
2022-10-06T15:45:02.825Z,43.13
2022-10-06T15:47:40.235Z,43.34
2022-10-06T15:50:18.545Z,44.25
2022-10-06T15:52:55.375Z,44.57
2022-10-06T15:55:30.593Z,44.76
2022-10-06T15:58:01.799Z,44.84
2022-10-06T16:00:35.595Z,44.99
2022-10-06T16:03:22.902Z,45.14
2022-10-06T16:06:00.318Z,45.32
2022-10-06T16:08:34.133Z,45.21
2022-10-06T16:11:05.869Z,45.48
2022-10-06T16:13:38.830Z,45.62
2022-10-06T16:16:09.100Z,45.63
2022-10-06T16:18:36.830Z,46.01
2022-10-06T16:21:13.318Z,45.95
2022-10-06T16:23:46.390Z,46.05
2022-10-06T16:26:18.651Z,45.73
2022-10-06T16:28:55.902Z,46.30
2022-10-06T16:31:26.428Z,46.67
2022-10-06T16:33:57.733Z,46.37
2022-10-06T16:36:36.853Z,46.43
2022-10-06T16:39:14.491Z,46.55
2022-10-06T16:41:42.826Z,46.62
2022-10-06T16:44:13.121Z,46.62
2022-10-06T16:46:40.998Z,46.67
2022-10-06T16:49:15.245Z,46.82
2022-10-06T16:51:52.462Z,46.93
2022-10-06T16:54:25.929Z,47.03
2022-10-06T16:56:58.264Z,46.68
2022-10-06T16:59:29.579Z,47.25
2022-10-06T17:02:04.888Z,46.95
2022-10-06T17:04:35.977Z,47.14
2022-10-06T17:07:09.624Z,47.36
2022-10-06T17:09:55.850Z,46.88
2022-10-06T17:12:34.761Z,47.06
2022-10-06T17:15:08.268Z,46.98
2022-10-06T17:17:35.926Z,47.02
2022-10-06T17:20:07.943Z,47.52
2022-10-06T17:22:42.025Z,47.09
2022-10-06T17:25:14.247Z,47.41
2022-10-06T17:27:44.812Z,47.23
2022-10-06T17:30:23.549Z,47.07
2022-10-06T17:32:54.335Z,47.13
2022-10-06T17:35:27.840Z,47.21
2022-10-06T17:38:00.301Z,47.40
2022-10-06T17:40:39.068Z,47.37
2022-10-06T17:43:07.596Z,47.37
2022-10-06T17:45:41.080Z,47.31
2022-10-06T17:48:08.832Z,47.10
2022-10-06T17:50:39.051Z,47.32
2022-10-06T17:53:09.385Z,47.08
2022-10-06T17:55:43.406Z,47.03
2022-10-06T17:58:15.235Z,47.42
2022-10-06T18:00:46.738Z,47.53
2022-10-06T18:03:14.357Z,47.18
2022-10-06T18:05:48.596Z,47.46
2022-10-06T18:08:23.645Z,47.10
2022-10-06T18:11:12.375Z,47.43
2022-10-06T18:13:48.004Z,47.27
2022-10-06T18:16:18.859Z,47.07
2022-10-06T18:18:49.728Z,47.66
2022-10-06T18:21:25.418Z,47.55
2022-10-06T18:23:58.692Z,47.15
2022-10-06T18:26:38.387Z,47.42
2022-10-06T18:29:07.027Z,47.48
2022-10-06T18:31:38.726Z,47.45
2022-10-06T18:37:07.768Z,47.52
2022-10-06T18:39:39.976Z,47.64
2022-10-06T18:42:13.922Z,47.51
2022-10-06T18:45:00.260Z,47.15
2022-10-06T18:47:48.885Z,47.50
2022-10-06T18:50:19.904Z,47.36
2022-10-06T18:52:52.289Z,47.62
2022-10-06T18:55:22.299Z,47.58
2022-10-06T18:57:53.138Z,47.58
2022-10-06T19:00:29.617Z,47.48
2022-10-06T19:03:03.817Z,47.33
2022-10-06T19:05:35.212Z,47.26
2022-10-06T19:08:09.426Z,47.57
2022-10-06T19:10:57.670Z,47.24
2022-10-06T19:13:28.306Z,47.34
2022-10-06T19:16:04.633Z,47.47
2022-10-06T19:18:37.922Z,47.38
2022-10-06T19:21:09.869Z,47.64
2022-10-06T19:23:41.369Z,47.26
2022-10-06T19:26:14.104Z,47.36
2022-10-06T19:28:44.579Z,47.54
2022-10-06T19:31:17.965Z,47.51
2022-10-06T19:33:54.349Z,47.40
2022-10-06T19:36:29.270Z,47.44
2022-10-06T19:39:04.909Z,47.21
2022-10-06T19:41:57.500Z,47.50
2022-10-06T19:44:26.318Z,47.41
2022-10-06T19:46:57.199Z,47.08
2022-10-06T19:49:28.111Z,47.17
2022-10-06T19:51:56.827Z,47.63
2022-10-06T19:54:27.970Z,47.18
2022-10-06T19:57:01.894Z,47.06
2022-10-06T19:59:36.772Z,47.35
2022-10-06T20:02:09.685Z,47.16
2022-10-06T20:04:43.087Z,47.49
2022-10-06T20:07:13.741Z,47.19
2022-10-06T20:09:41.578Z,47.45
2022-10-06T20:12:12.338Z,47.41
2022-10-06T20:14:42.811Z,47.78
2022-10-06T20:17:12.970Z,47.37
2022-10-06T20:19:47.237Z,47.26
2022-10-06T20:22:21.004Z,47.64
2022-10-06T20:24:48.687Z,47.46
2022-10-06T20:27:19.989Z,47.53
2022-10-06T20:29:48.274Z,47.18
2022-10-06T20:32:18.935Z,47.21
2022-10-06T20:34:46.910Z,47.53
2022-10-06T20:37:25.771Z,47.49
2022-10-06T20:40:11.564Z,47.57
2022-10-06T20:42:44.871Z,47.35
2022-10-06T20:45:15.409Z,47.65
2022-10-06T20:47:48.672Z,47.60
2022-10-06T20:50:16.563Z,47.22
2022-10-06T20:52:47.323Z,47.46
2022-10-06T20:55:17.786Z,47.47
2022-10-06T20:57:45.897Z,47.49
2022-10-06T21:00:22.951Z,47.70
2022-10-06T21:02:56.429Z,47.75
2022-10-06T21:05:30.970Z,47.37
2022-10-06T21:08:02.056Z,47.38
2022-10-06T21:10:32.113Z,47.35
2022-10-06T21:12:59.710Z,47.53
2022-10-06T21:15:30.292Z,47.61
2022-10-06T21:18:02.406Z,47.47
2022-10-06T21:20:30.678Z,47.68
2022-10-06T21:23:03.567Z,47.21
2022-10-06T21:25:40.427Z,47.38
2022-10-06T21:28:09.115Z,47.45
2022-10-06T21:30:44.249Z,47.36
2022-10-06T21:33:14.841Z,47.44
2022-10-06T21:35:45.200Z,47.64
2022-10-06T21:38:14.916Z,47.29
2022-10-06T21:40:42.624Z,47.48
2022-10-06T21:43:13.129Z,47.20
2022-10-06T21:46:17.125Z,47.63
2022-10-06T21:48:56.065Z,47.63
2022-10-06T21:51:27.605Z,47.44
2022-10-06T21:53:58.328Z,47.57
2022-10-06T21:56:39.851Z,47.38
2022-10-06T21:59:11.195Z,47.80
2022-10-06T22:01:41.909Z,47.52
2022-10-06T22:04:14.320Z,47.15
2022-10-06T22:06:45.835Z,47.24
2022-10-06T22:09:16.054Z,46.83
2022-10-06T22:11:49.244Z,46.31
2022-10-06T22:14:23.921Z,46.36
2022-10-06T22:16:54.955Z,46.18
2022-10-06T22:19:31.670Z,45.96
2022-10-06T22:22:07.353Z,45.95
2022-10-06T22:24:34.868Z,45.78
2022-10-06T22:27:07.958Z,45.73
2022-10-06T22:29:47.303Z,45.88
2022-10-06T22:32:23.023Z,45.33
2022-10-06T22:34:54.104Z,45.24
2022-10-06T22:37:25.598Z,45.67
2022-10-06T22:40:02.007Z,45.42
2022-10-06T22:42:40.585Z,45.75
2022-10-06T22:45:13.636Z,45.43
2022-10-06T22:47:46.393Z,45.65
2022-10-06T22:50:21.181Z,45.40
2022-10-06T22:52:52.095Z,45.41
2022-10-06T22:55:23.147Z,45.22
2022-10-06T22:57:55.987Z,45.59
2022-10-06T23:00:25.077Z,45.07
2022-10-06T23:02:55.541Z,45.69
2022-10-06T23:05:28.869Z,45.23
2022-10-06T23:08:03.827Z,45.31
2022-10-06T23:10:37.841Z,45.31
2022-10-06T23:13:05.187Z,45.30
2022-10-06T23:15:44.043Z,45.60
2022-10-06T23:18:19.297Z,45.35
2022-10-06T23:20:52.470Z,45.99
2022-10-06T23:23:23.193Z,45.80
2022-10-06T23:25:54.350Z,46.28
2022-10-06T23:28:27.002Z,46.46
2022-10-06T23:30:57.586Z,46.36
2022-10-06T23:33:29.205Z,46.19
2022-10-06T23:36:07.962Z,46.54
2022-10-06T23:38:45.258Z,46.66
2022-10-06T23:41:18.210Z,46.28
2022-10-06T23:43:45.637Z,46.47
2022-10-06T23:46:13.627Z,46.37
2022-10-06T23:48:47.046Z,46.47
2022-10-06T23:51:15.542Z,46.79
2022-10-06T23:53:50.467Z,46.48
2022-10-06T23:56:21.702Z,46.62
2022-10-06T23:58:51.413Z,47.02
